sensor_id;sensor_type;location;lat;lon;timestamp;pressure;altitude;pressure_sealevel;temperature;humidity
10079;BME280;5078;42.544;22.966;2022-10-31T00:00:08;94375.75;;;11.83;81.01
10079;BME280;5078;42.544;22.966;2022-10-31T00:02:36;94376.97;;;11.89;80.17
10079;BME280;5078;42.544;22.966;2022-10-31T00:05:03;94380.25;;;11.82;80.39
10079;BME280;5078;42.544;22.966;2022-10-31T00:07:30;94376.28;;;11.86;79.98
10079;BME280;5078;42.544;22.966;2022-10-31T00:09:56;94376.44;;;11.77;80.43
10079;BME280;5078;42.544;22.966;2022-10-31T00:12:23;94373.63;;;11.86;79.04
10079;BME280;5078;42.544;22.966;2022-10-31T00:14:50;94368.78;;;11.82;79.32
10079;BME280;5078;42.544;22.966;2022-10-31T00:17:17;94375.59;;;11.84;79.34
10079;BME280;5078;42.544;22.966;2022-10-31T00:19:46;94351.72;;;11.76;79.04
10079;BME280;5078;42.544;22.966;2022-10-31T00:22:13;94369.28;;;11.85;78.72
10079;BME280;5078;42.544;22.966;2022-10-31T00:24:40;94373.94;;;11.92;78.43
10079;BME280;5078;42.544;22.966;2022-10-31T00:27:06;94382.72;;;12.00;76.87
10079;BME280;5078;42.544;22.966;2022-10-31T00:29:33;94378.91;;;11.95;74.79
10079;BME280;5078;42.544;22.966;2022-10-31T00:32:00;94392.22;;;11.86;74.58
10079;BME280;5078;42.544;22.966;2022-10-31T00:34:26;94384.91;;;11.80;74.34
10079;BME280;5078;42.544;22.966;2022-10-31T00:36:55;94383.94;;;11.73;74.43
10079;BME280;5078;42.544;22.966;2022-10-31T00:39:21;94383.66;;;11.43;75.94
10079;BME280;5078;42.544;22.966;2022-10-31T00:41:48;94380.34;;;11.17;78.00
10079;BME280;5078;42.544;22.966;2022-10-31T00:44:15;94388.97;;;10.94;79.63
10079;BME280;5078;42.544;22.966;2022-10-31T00:46:41;94376.88;;;10.84;82.21
10079;BME280;5078;42.544;22.966;2022-10-31T00:49:11;94386.16;;;10.79;82.52
10079;BME280;5078;42.544;22.966;2022-10-31T00:51:38;94383.31;;;10.65;83.36
10079;BME280;5078;42.544;22.966;2022-10-31T00:54:06;94380.16;;;10.77;83.13
10079;BME280;5078;42.544;22.966;2022-10-31T00:56:33;94391.19;;;10.32;84.83
10079;BME280;5078;42.544;22.966;2022-10-31T00:58:59;94390.72;;;10.10;88.53
10079;BME280;5078;42.544;22.966;2022-10-31T01:01:26;94384.00;;;9.82;90.78
10079;BME280;5078;42.544;22.966;2022-10-31T01:03:53;94394.38;;;10.01;91.30
10079;BME280;5078;42.544;22.966;2022-10-31T01:06:19;94387.94;;;10.12;91.33
10079;BME280;5078;42.544;22.966;2022-10-31T01:08:47;94390.72;;;10.02;91.78
10079;BME280;5078;42.544;22.966;2022-10-31T01:11:17;94393.34;;;9.68;93.87
10079;BME280;5078;42.544;22.966;2022-10-31T01:13:46;94393.88;;;9.45;97.13
10079;BME280;5078;42.544;22.966;2022-10-31T01:16:16;94397.84;;;9.41;98.16
10079;BME280;5078;42.544;22.966;2022-10-31T01:18:43;94401.97;;;9.18;99.94
10079;BME280;5078;42.544;22.966;2022-10-31T01:21:15;94399.00;;;9.39;100.00
10079;BME280;5078;42.544;22.966;2022-10-31T01:23:42;94398.50;;;9.43;99.59
10079;BME280;5078;42.544;22.966;2022-10-31T01:26:10;94397.88;;;9.49;98.83
10079;BME280;5078;42.544;22.966;2022-10-31T01:28:43;94402.41;;;9.57;98.50
10079;BME280;5078;42.544;22.966;2022-10-31T01:31:12;94396.19;;;9.66;97.96
10079;BME280;5078;42.544;22.966;2022-10-31T01:33:39;94396.56;;;9.80;97.43
10079;BME280;5078;42.544;22.966;2022-10-31T01:38:34;94392.22;;;9.44;96.98
10079;BME280;5078;42.544;22.966;2022-10-31T01:41:00;94385.41;;;9.68;96.94
10079;BME280;5078;42.544;22.966;2022-10-31T01:43:48;94386.41;;;9.41;97.66
10079;BME280;5078;42.544;22.966;2022-10-31T01:46:17;94396.91;;;9.24;98.30
10079;BME280;5078;42.544;22.966;2022-10-31T01:48:46;94397.22;;;9.47;98.72
10079;BME280;5078;42.544;22.966;2022-10-31T01:51:15;94393.69;;;9.65;97.61
10079;BME280;5078;42.544;22.966;2022-10-31T01:53:46;94396.72;;;9.78;97.27
10079;BME280;5078;42.544;22.966;2022-10-31T01:56:15;94392.34;;;9.95;95.87
10079;BME280;5078;42.544;22.966;2022-10-31T01:58:46;94395.69;;;10.05;94.71
10079;BME280;5078;42.544;22.966;2022-10-31T02:01:14;94394.75;;;10.23;94.07
10079;BME280;5078;42.544;22.966;2022-10-31T02:03:42;94378.38;;;10.19;93.78
10079;BME280;5078;42.544;22.966;2022-10-31T02:06:17;94393.25;;;10.20;92.30
10079;BME280;5078;42.544;22.966;2022-10-31T02:08:50;94385.31;;;9.86;93.86
10079;BME280;5078;42.544;22.966;2022-10-31T02:11:17;94392.22;;;9.70;96.39
10079;BME280;5078;42.544;22.966;2022-10-31T02:13:44;94372.63;;;9.98;95.64
10079;BME280;5078;42.544;22.966;2022-10-31T02:16:13;94382.75;;;9.68;97.27
10079;BME280;5078;42.544;22.966;2022-10-31T02:18:39;94380.19;;;9.76;96.69
10079;BME280;5078;42.544;22.966;2022-10-31T02:21:12;94378.38;;;9.85;96.83
10079;BME280;5078;42.544;22.966;2022-10-31T02:26:52;94377.78;;;9.99;95.35
10079;BME280;5078;42.544;22.966;2022-10-31T02:29:49;94388.09;;;10.10;94.32
10079;BME280;5078;42.544;22.966;2022-10-31T02:32:22;94391.03;;;9.99;93.28
10079;BME280;5078;42.544;22.966;2022-10-31T02:34:57;94388.16;;;9.84;93.88
10079;BME280;5078;42.544;22.966;2022-10-31T02:37:34;94395.75;;;9.79;94.40
10079;BME280;5078;42.544;22.966;2022-10-31T02:40:09;94380.56;;;9.63;93.31
10079;BME280;5078;42.544;22.966;2022-10-31T02:42:59;94402.19;;;9.77;93.75
10079;BME280;5078;42.544;22.966;2022-10-31T02:45:32;94404.97;;;9.75;93.48
10079;BME280;5078;42.544;22.966;2022-10-31T02:48:09;94398.19;;;9.72;92.97
10079;BME280;5078;42.544;22.966;2022-10-31T02:50:41;94408.78;;;9.72;93.61
10079;BME280;5078;42.544;22.966;2022-10-31T02:53:21;94407.69;;;9.57;93.59
10079;BME280;5078;42.544;22.966;2022-10-31T02:55:58;94396.09;;;9.58;93.81
10079;BME280;5078;42.544;22.966;2022-10-31T02:58:33;94409.06;;;9.43;95.26
10079;BME280;5078;42.544;22.966;2022-10-31T03:01:33;94412.25;;;9.47;95.15
10079;BME280;5078;42.544;22.966;2022-10-31T03:04:31;94405.50;;;9.53;94.55
10079;BME280;5078;42.544;22.966;2022-10-31T03:07:11;94400.06;;;9.54;94.32
10079;BME280;5078;42.544;22.966;2022-10-31T03:09:54;94391.09;;;9.47;95.08
10079;BME280;5078;42.544;22.966;2022-10-31T03:12:28;94404.41;;;9.37;95.43
10079;BME280;5078;42.544;22.966;2022-10-31T03:15:04;94408.09;;;9.00;99.46
10079;BME280;5078;42.544;22.966;2022-10-31T03:17:37;94400.00;;;9.20;100.00
10079;BME280;5078;42.544;22.966;2022-10-31T03:20:10;94390.19;;;9.12;100.00
10079;BME280;5078;42.544;22.966;2022-10-31T03:22:46;94407.16;;;9.27;100.00
10079;BME280;5078;42.544;22.966;2022-10-31T03:25:14;94401.72;;;9.29;99.78
10079;BME280;5078;42.544;22.966;2022-10-31T03:27:42;94409.66;;;9.55;98.50
10079;BME280;5078;42.544;22.966;2022-10-31T03:30:10;94408.94;;;9.71;97.72
10079;BME280;5078;42.544;22.966;2022-10-31T03:32:46;94417.28;;;9.58;97.25
10079;BME280;5078;42.544;22.966;2022-10-31T03:35:22;94422.13;;;9.63;97.51
10079;BME280;5078;42.544;22.966;2022-10-31T03:37:52;94421.34;;;9.44;98.49
10079;BME280;5078;42.544;22.966;2022-10-31T03:40:21;94421.09;;;9.82;96.91
10079;BME280;5078;42.544;22.966;2022-10-31T03:42:54;94424.16;;;10.03;95.88
10079;BME280;5078;42.544;22.966;2022-10-31T03:45:24;94422.59;;;10.19;94.67
10079;BME280;5078;42.544;22.966;2022-10-31T03:47:53;94438.06;;;10.31;93.17
10079;BME280;5078;42.544;22.966;2022-10-31T03:50:24;94429.13;;;10.41;92.68
10079;BME280;5078;42.544;22.966;2022-10-31T03:52:56;94435.50;;;10.13;93.45
10079;BME280;5078;42.544;22.966;2022-10-31T03:55:30;94438.72;;;9.99;94.47
10079;BME280;5078;42.544;22.966;2022-10-31T03:58:00;94434.78;;;9.77;96.23
10079;BME280;5078;42.544;22.966;2022-10-31T04:00:31;94438.41;;;10.02;93.72
10079;BME280;5078;42.544;22.966;2022-10-31T04:03:03;94439.34;;;9.93;95.01
10079;BME280;5078;42.544;22.966;2022-10-31T04:05:34;94451.41;;;9.87;95.11
10079;BME280;5078;42.544;22.966;2022-10-31T04:08:05;94446.41;;;9.84;95.14
10079;BME280;5078;42.544;22.966;2022-10-31T04:10:35;94448.16;;;9.76;96.61
10079;BME280;5078;42.544;22.966;2022-10-31T04:13:08;94445.50;;;9.93;95.03
10079;BME280;5078;42.544;22.966;2022-10-31T04:15:37;94449.63;;;9.96;94.66
10079;BME280;5078;42.544;22.966;2022-10-31T04:18:05;94446.56;;;9.83;95.50
10079;BME280;5078;42.544;22.966;2022-10-31T04:20:35;94449.47;;;9.45;98.33
10079;BME280;5078;42.544;22.966;2022-10-31T04:23:03;94456.47;;;9.81;98.02
10079;BME280;5078;42.544;22.966;2022-10-31T04:25:31;94451.19;;;9.81;97.69
10079;BME280;5078;42.544;22.966;2022-10-31T04:27:58;94453.38;;;9.85;98.01
10079;BME280;5078;42.544;22.966;2022-10-31T04:30:25;94455.47;;;9.74;98.94
10079;BME280;5078;42.544;22.966;2022-10-31T04:32:52;94454.94;;;9.96;98.84
10079;BME280;5078;42.544;22.966;2022-10-31T04:35:18;94456.19;;;9.84;97.95
10079;BME280;5078;42.544;22.966;2022-10-31T04:37:46;94459.88;;;9.65;98.46
10079;BME280;5078;42.544;22.966;2022-10-31T04:40:13;94456.47;;;9.81;100.00
10079;BME280;5078;42.544;22.966;2022-10-31T04:42:40;94458.75;;;9.76;100.00
10079;BME280;5078;42.544;22.966;2022-10-31T04:45:07;94456.47;;;9.81;99.40
10079;BME280;5078;42.544;22.966;2022-10-31T04:47:34;94457.69;;;9.86;99.54
10079;BME280;5078;42.544;22.966;2022-10-31T04:50:00;94456.78;;;9.78;99.00
10079;BME280;5078;42.544;22.966;2022-10-31T04:52:27;94462.38;;;10.01;99.11
10079;BME280;5078;42.544;22.966;2022-10-31T04:54:55;94466.06;;;10.34;97.49
10079;BME280;5078;42.544;22.966;2022-10-31T04:57:22;94468.53;;;10.35;96.73
10079;BME280;5078;42.544;22.966;2022-10-31T04:59:49;94452.16;;;10.40;95.08
10079;BME280;5078;42.544;22.966;2022-10-31T05:02:16;94462.50;;;10.60;93.04
10079;BME280;5078;42.544;22.966;2022-10-31T05:04:42;94470.72;;;10.40;91.75
10079;BME280;5078;42.544;22.966;2022-10-31T05:07:09;94463.66;;;10.23;93.31
10079;BME280;5078;42.544;22.966;2022-10-31T05:09:36;94475.34;;;10.04;93.50
10079;BME280;5078;42.544;22.966;2022-10-31T05:12:04;94475.06;;;10.15;93.09
10079;BME280;5078;42.544;22.966;2022-10-31T05:14:31;94472.69;;;10.04;94.08
10079;BME280;5078;42.544;22.966;2022-10-31T05:16:57;94471.28;;;9.91;94.85
10079;BME280;5078;42.544;22.966;2022-10-31T05:19:24;94476.38;;;9.85;94.82
10079;BME280;5078;42.544;22.966;2022-10-31T05:21:51;94479.53;;;10.14;93.54
10079;BME280;5078;42.544;22.966;2022-10-31T05:24:17;94486.47;;;10.15;93.41
10079;BME280;5078;42.544;22.966;2022-10-31T05:26:47;94495.78;;;10.20;92.65
10079;BME280;5078;42.544;22.966;2022-10-31T05:29:15;94485.34;;;10.18;92.55
10079;BME280;5078;42.544;22.966;2022-10-31T05:31:44;94491.75;;;10.07;91.95
10079;BME280;5078;42.544;22.966;2022-10-31T05:34:11;94488.25;;;10.07;92.73
10079;BME280;5078;42.544;22.966;2022-10-31T05:36:38;94487.84;;;10.20;92.89
10079;BME280;5078;42.544;22.966;2022-10-31T05:39:05;94497.41;;;10.12;93.20
10079;BME280;5078;42.544;22.966;2022-10-31T05:41:31;94496.78;;;10.19;96.45
10079;BME280;5078;42.544;22.966;2022-10-31T05:43:58;94490.66;;;10.52;94.92
10079;BME280;5078;42.544;22.966;2022-10-31T05:46:26;94494.34;;;10.68;92.05
10079;BME280;5078;42.544;22.966;2022-10-31T05:48:53;94492.97;;;11.06;90.13
10079;BME280;5078;42.544;22.966;2022-10-31T05:51:19;94499.50;;;11.44;87.58
10079;BME280;5078;42.544;22.966;2022-10-31T05:53:46;94485.53;;;11.75;84.61
10079;BME280;5078;42.544;22.966;2022-10-31T05:56:13;94497.50;;;11.87;85.35
10079;BME280;5078;42.544;22.966;2022-10-31T05:58:40;94496.13;;;12.24;84.33
10079;BME280;5078;42.544;22.966;2022-10-31T06:01:07;94498.19;;;12.45;82.41
10079;BME280;5078;42.544;22.966;2022-10-31T06:03:35;94499.13;;;12.69;81.95
10079;BME280;5078;42.544;22.966;2022-10-31T06:06:02;94499.03;;;12.85;81.26
10079;BME280;5078;42.544;22.966;2022-10-31T06:08:28;94501.31;;;13.28;78.95
10079;BME280;5078;42.544;22.966;2022-10-31T06:10:57;94495.72;;;13.69;76.60
10079;BME280;5078;42.544;22.966;2022-10-31T06:13:23;94498.50;;;13.90;73.20
10079;BME280;5078;42.544;22.966;2022-10-31T06:15:50;94499.69;;;14.11;72.16
10079;BME280;5078;42.544;22.966;2022-10-31T06:18:17;94497.97;;;14.33;70.78
10079;BME280;5078;42.544;22.966;2022-10-31T06:20:47;94497.25;;;14.69;69.00
10079;BME280;5078;42.544;22.966;2022-10-31T06:23:13;94488.94;;;14.78;67.61
10079;BME280;5078;42.544;22.966;2022-10-31T06:25:40;94503.53;;;15.12;66.14
10079;BME280;5078;42.544;22.966;2022-10-31T06:28:07;94507.41;;;15.46;63.69
10079;BME280;5078;42.544;22.966;2022-10-31T06:30:33;94508.13;;;15.40;63.46
10079;BME280;5078;42.544;22.966;2022-10-31T06:33:03;94510.25;;;15.44;62.17
10079;BME280;5078;42.544;22.966;2022-10-31T06:35:31;94503.25;;;15.07;65.56
10079;BME280;5078;42.544;22.966;2022-10-31T06:38:00;94504.22;;;15.36;62.71
10079;BME280;5078;42.544;22.966;2022-10-31T06:40:26;94500.41;;;15.66;62.71
10079;BME280;5078;42.544;22.966;2022-10-31T06:43:00;94481.09;;;15.49;62.29
10079;BME280;5078;42.544;22.966;2022-10-31T06:45:27;94503.72;;;15.68;62.50
10079;BME280;5078;42.544;22.966;2022-10-31T06:47:54;94497.13;;;16.14;59.42
10079;BME280;5078;42.544;22.966;2022-10-31T06:50:22;94503.91;;;16.38;58.75
10079;BME280;5078;42.544;22.966;2022-10-31T06:52:52;94492.56;;;16.36;59.00
10079;BME280;5078;42.544;22.966;2022-10-31T06:55:21;94503.16;;;16.51;56.86
10079;BME280;5078;42.544;22.966;2022-10-31T06:57:51;94504.81;;;16.87;56.67
10079;BME280;5078;42.544;22.966;2022-10-31T07:00:18;94503.00;;;17.62;53.83
10079;BME280;5078;42.544;22.966;2022-10-31T07:02:53;94503.75;;;18.17;52.01
10079;BME280;5078;42.544;22.966;2022-10-31T07:05:20;94502.28;;;18.35;50.80
10079;BME280;5078;42.544;22.966;2022-10-31T07:07:47;94500.66;;;18.20;51.71
10079;BME280;5078;42.544;22.966;2022-10-31T07:10:17;94505.53;;;17.70;53.38
10079;BME280;5078;42.544;22.966;2022-10-31T07:12:45;94499.59;;;18.21;52.59
10079;BME280;5078;42.544;22.966;2022-10-31T07:15:12;94499.78;;;18.46;51.12
10079;BME280;5078;42.544;22.966;2022-10-31T07:17:39;94499.56;;;18.68;51.14
10079;BME280;5078;42.544;22.966;2022-10-31T07:20:07;94502.84;;;18.63;51.12
10079;BME280;5078;42.544;22.966;2022-10-31T07:22:34;94502.47;;;18.60;51.72
10079;BME280;5078;42.544;22.966;2022-10-31T07:25:01;94496.66;;;18.63;50.51
10079;BME280;5078;42.544;22.966;2022-10-31T07:27:28;94504.28;;;18.79;50.56
10079;BME280;5078;42.544;22.966;2022-10-31T07:29:56;94502.63;;;19.43;49.35
10079;BME280;5078;42.544;22.966;2022-10-31T07:32:25;94497.72;;;19.27;49.46
10079;BME280;5078;42.544;22.966;2022-10-31T07:34:52;94497.13;;;19.63;48.78
10079;BME280;5078;42.544;22.966;2022-10-31T07:37:19;94497.50;;;19.67;48.45
10079;BME280;5078;42.544;22.966;2022-10-31T07:39:46;94495.41;;;19.82;48.21
10079;BME280;5078;42.544;22.966;2022-10-31T07:42:12;94492.91;;;19.80;47.76
10079;BME280;5078;42.544;22.966;2022-10-31T07:44:39;94457.91;;;19.87;47.24
10079;BME280;5078;42.544;22.966;2022-10-31T07:47:07;94482.66;;;20.46;46.39
10079;BME280;5078;42.544;22.966;2022-10-31T07:49:34;94495.16;;;20.15;46.80
10079;BME280;5078;42.544;22.966;2022-10-31T07:52:01;94485.69;;;20.56;46.12
10079;BME280;5078;42.544;22.966;2022-10-31T07:54:27;94446.13;;;20.57;45.59
10079;BME280;5078;42.544;22.966;2022-10-31T07:56:54;94475.34;;;20.53;46.39
10079;BME280;5078;42.544;22.966;2022-10-31T07:59:21;94462.53;;;20.92;45.30
10079;BME280;5078;42.544;22.966;2022-10-31T08:01:47;94474.78;;;21.06;44.71
10079;BME280;5078;42.544;22.966;2022-10-31T08:04:16;94476.56;;;21.31;44.34
10079;BME280;5078;42.544;22.966;2022-10-31T08:06:42;94479.16;;;21.44;43.99
10079;BME280;5078;42.544;22.966;2022-10-31T08:09:09;94465.78;;;21.91;42.78
10079;BME280;5078;42.544;22.966;2022-10-31T08:11:36;94464.66;;;21.99;42.50
10079;BME280;5078;42.544;22.966;2022-10-31T08:14:02;94466.19;;;22.18;41.59
10079;BME280;5078;42.544;22.966;2022-10-31T08:16:29;94459.75;;;21.66;42.38
10079;BME280;5078;42.544;22.966;2022-10-31T08:19:00;94463.19;;;21.43;42.84
10079;BME280;5078;42.544;22.966;2022-10-31T08:21:28;94465.94;;;21.66;42.24
10079;BME280;5078;42.544;22.966;2022-10-31T08:23:55;94474.03;;;21.54;41.83
10079;BME280;5078;42.544;22.966;2022-10-31T08:26:22;94474.66;;;21.20;42.84
10079;BME280;5078;42.544;22.966;2022-10-31T08:28:48;94463.75;;;21.26;42.83
10079;BME280;5078;42.544;22.966;2022-10-31T08:31:15;94470.47;;;20.87;43.34
10079;BME280;5078;42.544;22.966;2022-10-31T08:33:42;94470.44;;;21.24;42.97
10079;BME280;5078;42.544;22.966;2022-10-31T08:36:09;94463.91;;;21.80;42.21
10079;BME280;5078;42.544;22.966;2022-10-31T08:38:46;94464.97;;;22.45;40.80
10079;BME280;5078;42.544;22.966;2022-10-31T08:41:14;94463.56;;;22.66;40.52
10079;BME280;5078;42.544;22.966;2022-10-31T08:43:41;94469.44;;;22.51;40.71
10079;BME280;5078;42.544;22.966;2022-10-31T08:46:08;94462.97;;;22.87;39.77
10079;BME280;5078;42.544;22.966;2022-10-31T08:48:34;94473.34;;;23.31;38.78
10079;BME280;5078;42.544;22.966;2022-10-31T08:51:01;94475.66;;;22.98;38.90
10079;BME280;5078;42.544;22.966;2022-10-31T08:53:29;94473.72;;;23.22;38.56
10079;BME280;5078;42.544;22.966;2022-10-31T08:56:00;94476.72;;;23.09;39.33
10079;BME280;5078;42.544;22.966;2022-10-31T08:58:27;94471.09;;;23.39;38.63
10079;BME280;5078;42.544;22.966;2022-10-31T09:00:54;94479.06;;;23.06;39.36
10079;BME280;5078;42.544;22.966;2022-10-31T09:03:22;94473.16;;;23.20;38.65
10079;BME280;5078;42.544;22.966;2022-10-31T09:05:50;94474.44;;;23.18;38.51
10079;BME280;5078;42.544;22.966;2022-10-31T09:08:17;94470.25;;;22.75;39.39
10079;BME280;5078;42.544;22.966;2022-10-31T09:10:46;94469.91;;;23.07;39.27
10079;BME280;5078;42.544;22.966;2022-10-31T09:13:25;94469.44;;;23.38;39.03
10079;BME280;5078;42.544;22.966;2022-10-31T09:15:52;94468.09;;;23.53;38.44
10079;BME280;5078;42.544;22.966;2022-10-31T09:18:20;94463.09;;;24.02;38.17
10079;BME280;5078;42.544;22.966;2022-10-31T09:20:49;94464.38;;;24.16;37.49
10079;BME280;5078;42.544;22.966;2022-10-31T09:23:19;94464.31;;;24.45;36.77
10079;BME280;5078;42.544;22.966;2022-10-31T09:25:51;94456.97;;;23.78;37.67
10079;BME280;5078;42.544;22.966;2022-10-31T09:28:22;94456.69;;;24.25;36.81
10079;BME280;5078;42.544;22.966;2022-10-31T09:30:50;94465.06;;;24.40;36.60
10079;BME280;5078;42.544;22.966;2022-10-31T09:33:17;94458.66;;;24.29;36.72
10079;BME280;5078;42.544;22.966;2022-10-31T09:35:44;94458.34;;;24.09;36.75
10079;BME280;5078;42.544;22.966;2022-10-31T09:38:17;94457.84;;;24.12;37.24
10079;BME280;5078;42.544;22.966;2022-10-31T09:40:47;94457.91;;;24.17;36.81
10079;BME280;5078;42.544;22.966;2022-10-31T09:43:25;94453.47;;;23.65;38.41
10079;BME280;5078;42.544;22.966;2022-10-31T09:46:01;94447.97;;;24.40;37.39
10079;BME280;5078;42.544;22.966;2022-10-31T09:48:51;94450.31;;;24.48;36.26
10079;BME280;5078;42.544;22.966;2022-10-31T09:51:22;94455.06;;;23.78;37.08
10079;BME280;5078;42.544;22.966;2022-10-31T09:53:54;94444.84;;;23.97;37.97
10079;BME280;5078;42.544;22.966;2022-10-31T09:56:23;94433.38;;;24.07;36.82
10079;BME280;5078;42.544;22.966;2022-10-31T09:58:54;94440.41;;;24.59;36.93
10079;BME280;5078;42.544;22.966;2022-10-31T10:01:50;94440.38;;;24.92;35.97
10079;BME280;5078;42.544;22.966;2022-10-31T10:04:54;94439.22;;;24.88;35.77
10079;BME280;5078;42.544;22.966;2022-10-31T10:07:35;94432.16;;;24.31;36.61
10079;BME280;5078;42.544;22.966;2022-10-31T10:10:14;94424.72;;;24.61;36.23
10079;BME280;5078;42.544;22.966;2022-10-31T10:12:55;94430.75;;;24.29;36.06
10079;BME280;5078;42.544;22.966;2022-10-31T10:15:39;94435.00;;;24.42;36.47
10079;BME280;5078;42.544;22.966;2022-10-31T10:18:17;94423.34;;;24.24;36.45
10079;BME280;5078;42.544;22.966;2022-10-31T10:20:58;94424.81;;;24.66;36.17
10079;BME280;5078;42.544;22.966;2022-10-31T10:23:44;94417.44;;;24.83;36.28
10079;BME280;5078;42.544;22.966;2022-10-31T10:26:17;94418.91;;;24.18;36.14
10079;BME280;5078;42.544;22.966;2022-10-31T10:28:48;94423.13;;;24.09;36.75
10079;BME280;5078;42.544;22.966;2022-10-31T10:31:23;94429.66;;;23.67;37.04
10079;BME280;5078;42.544;22.966;2022-10-31T10:33:58;94419.16;;;24.17;36.93
10079;BME280;5078;42.544;22.966;2022-10-31T10:36:32;94414.63;;;23.88;37.11
10079;BME280;5078;42.544;22.966;2022-10-31T10:39:04;94423.91;;;23.93;37.35
10079;BME280;5078;42.544;22.966;2022-10-31T10:41:32;94411.91;;;23.88;37.18
10079;BME280;5078;42.544;22.966;2022-10-31T10:43:59;94416.78;;;24.20;36.76
10079;BME280;5078;42.544;22.966;2022-10-31T10:46:44;94405.19;;;24.08;37.33
10079;BME280;5078;42.544;22.966;2022-10-31T10:49:36;94410.53;;;24.03;37.54
10079;BME280;5078;42.544;22.966;2022-10-31T10:52:10;94412.69;;;23.84;36.82
10079;BME280;5078;42.544;22.966;2022-10-31T10:54:44;94413.66;;;23.95;37.14
10079;BME280;5078;42.544;22.966;2022-10-31T10:57:26;94404.78;;;24.33;36.93
10079;BME280;5078;42.544;22.966;2022-10-31T10:59:59;94408.56;;;24.15;36.29
10079;BME280;5078;42.544;22.966;2022-10-31T11:02:31;94405.78;;;24.44;36.42
10079;BME280;5078;42.544;22.966;2022-10-31T11:05:00;94404.78;;;24.33;35.94
10079;BME280;5078;42.544;22.966;2022-10-31T11:07:37;94401.00;;;24.34;36.34
10079;BME280;5078;42.544;22.966;2022-10-31T11:10:05;94392.22;;;24.27;35.83
10079;BME280;5078;42.544;22.966;2022-10-31T11:12:38;94396.09;;;24.14;35.72
10079;BME280;5078;42.544;22.966;2022-10-31T11:15:08;94384.91;;;24.10;35.81
10079;BME280;5078;42.544;22.966;2022-10-31T11:17:48;94385.91;;;23.87;36.61
10079;BME280;5078;42.544;22.966;2022-10-31T11:20:26;94382.19;;;23.94;36.49
10079;BME280;5078;42.544;22.966;2022-10-31T11:23:02;94376.78;;;23.94;35.64
10079;BME280;5078;42.544;22.966;2022-10-31T11:25:30;94376.25;;;23.92;36.28
10079;BME280;5078;42.544;22.966;2022-10-31T11:28:00;94368.00;;;24.20;36.21
10079;BME280;5078;42.544;22.966;2022-10-31T11:30:28;94344.50;;;23.58;36.52
10079;BME280;5078;42.544;22.966;2022-10-31T11:32:57;94366.81;;;23.65;36.72
10079;BME280;5078;42.544;22.966;2022-10-31T11:35:25;94371.16;;;23.50;37.28
10079;BME280;5078;42.544;22.966;2022-10-31T11:37:53;94374.25;;;23.13;36.97
10079;BME280;5078;42.544;22.966;2022-10-31T11:40:27;94360.53;;;22.91;37.80
10079;BME280;5078;42.544;22.966;2022-10-31T11:43:01;94365.19;;;22.67;38.15
10079;BME280;5078;42.544;22.966;2022-10-31T11:45:31;94356.28;;;22.54;37.94
10079;BME280;5078;42.544;22.966;2022-10-31T11:48:01;94358.50;;;22.69;38.45
10079;BME280;5078;42.544;22.966;2022-10-31T11:50:32;94357.88;;;22.79;38.35
10079;BME280;5078;42.544;22.966;2022-10-31T11:53:01;94353.00;;;22.93;38.47
10079;BME280;5078;42.544;22.966;2022-10-31T11:55:34;94349.22;;;22.94;38.54
10079;BME280;5078;42.544;22.966;2022-10-31T11:58:01;94342.09;;;22.99;38.30
10079;BME280;5078;42.544;22.966;2022-10-31T12:00:30;94346.19;;;23.02;38.20
10079;BME280;5078;42.544;22.966;2022-10-31T12:03:12;94340.72;;;23.14;37.92
10079;BME280;5078;42.544;22.966;2022-10-31T12:05:41;94342.00;;;23.40;37.76
10079;BME280;5078;42.544;22.966;2022-10-31T12:08:12;94333.91;;;23.40;37.72
10079;BME280;5078;42.544;22.966;2022-10-31T12:10:49;94328.25;;;23.41;37.38
10079;BME280;5078;42.544;22.966;2022-10-31T12:13:31;94338.66;;;23.50;36.80
10079;BME280;5078;42.544;22.966;2022-10-31T12:16:02;94325.13;;;23.50;36.71
10079;BME280;5078;42.544;22.966;2022-10-31T12:18:55;94332.28;;;23.39;36.84
10079;BME280;5078;42.544;22.966;2022-10-31T12:21:32;94313.19;;;23.17;37.22
10079;BME280;5078;42.544;22.966;2022-10-31T12:24:11;94327.66;;;23.39;36.60
10079;BME280;5078;42.544;22.966;2022-10-31T12:26:49;94338.22;;;23.24;36.88
10079;BME280;5078;42.544;22.966;2022-10-31T12:29:31;94328.22;;;23.24;36.95
10079;BME280;5078;42.544;22.966;2022-10-31T12:32:14;94327.19;;;23.42;36.79
10079;BME280;5078;42.544;22.966;2022-10-31T12:35:17;94328.88;;;23.48;36.33
10079;BME280;5078;42.544;22.966;2022-10-31T12:40:47;94336.44;;;23.63;36.42
10079;BME280;5078;42.544;22.966;2022-10-31T12:43:32;94316.66;;;23.29;36.27
10079;BME280;5078;42.544;22.966;2022-10-31T12:46:02;94347.69;;;23.55;36.11
10079;BME280;5078;42.544;22.966;2022-10-31T12:48:56;94341.28;;;23.44;36.19
10079;BME280;5078;42.544;22.966;2022-10-31T12:51:35;94341.44;;;23.38;36.39
10079;BME280;5078;42.544;22.966;2022-10-31T12:54:20;94344.72;;;23.40;36.68
10079;BME280;5078;42.544;22.966;2022-10-31T12:56:59;94359.97;;;23.46;36.45
10079;BME280;5078;42.544;22.966;2022-10-31T12:59:31;94350.13;;;23.40;36.07
10079;BME280;5078;42.544;22.966;2022-10-31T13:02:04;94357.09;;;23.07;36.53
10079;BME280;5078;42.544;22.966;2022-10-31T13:04:40;94352.03;;;23.39;36.80
10079;BME280;5078;42.544;22.966;2022-10-31T13:07:14;94346.63;;;23.56;35.96
10079;BME280;5078;42.544;22.966;2022-10-31T13:09:46;94349.75;;;23.65;35.55
10079;BME280;5078;42.544;22.966;2022-10-31T13:12:18;94348.41;;;23.79;35.77
10079;BME280;5078;42.544;22.966;2022-10-31T13:14:49;94352.78;;;23.68;35.61
10079;BME280;5078;42.544;22.966;2022-10-31T13:17:24;94358.03;;;23.41;36.35
10079;BME280;5078;42.544;22.966;2022-10-31T13:19:58;94351.72;;;23.53;36.06
10079;BME280;5078;42.544;22.966;2022-10-31T13:22:32;94354.09;;;23.49;36.29
10079;BME280;5078;42.544;22.966;2022-10-31T13:25:04;94360.56;;;23.48;36.39
10079;BME280;5078;42.544;22.966;2022-10-31T13:27:44;94357.66;;;23.38;36.21
10079;BME280;5078;42.544;22.966;2022-10-31T13:30:14;94360.88;;;23.35;36.81